Check out our new PWSWeather beta!
PWSweather.com
Personal Weather Stations
Station Observations
WD4JKH
Forsyth, GA 31029

Forsyth, GA 31029

Lat: 33.033225, Lon: -83.927995

Elevation: 709

Station Type: Davis Vantage VUE

High Low Average
Temperature 58.2°F14.6°C 34.8°F1.6°C 45.5°F7.5°C
Dew Point 41.3°F5.2°C 31.8°F-0.1°C 36.6°F2.6°C
Winds 6.7 mph 10.8 kmh Calm Calm 2.0 mph SW3.2 kmh SW
Wind Gusts 16.0 mph25.7 kmh -- 6.0 mph9.7 kmh
Humidity 90% 49% 72%
Pressure 30.32 in1026.8 mb 30.18 in1022.0 mb -
Precipitation 0.00 in0.0 mm - -
Hour Temp Dew Point Humidity Winds Wind Gusts Pressure Precip Precip Rate Daily Precip Total
12:04 AM 39.3°F4.1°C 34.3°F1.3°C 82% 3.2 mph NW5.1 kmh NW 15.0 mph24.1 kmh 30.18 in1022.0 mb 0.00 in0.0 mm 0.00 in0.0 mm 0.00 in0.0 mm
12:09 AM 39.1°F3.9°C 34.1°F1.2°C 82% 3.6 mph NW5.8 kmh NW 16.0 mph25.7 kmh 30.18 in1022.0 mb 0.00 in0.0 mm 0.00 in0.0 mm 0.00 in0.0 mm
12:14 AM 39.0°F3.9°C 34.0°F1.1°C 82% 3.3 mph NW5.3 kmh NW 16.0 mph25.7 kmh 30.18 in1022.0 mb 0.00 in0.0 mm 0.00 in0.0 mm 0.00 in0.0 mm
12:19 AM 38.9°F3.8°C 33.6°F0.9°C 81% 5.4 mph NW8.7 kmh NW 16.0 mph25.7 kmh 30.18 in1022.0 mb 0.00 in0.0 mm 0.00 in0.0 mm 0.00 in0.0 mm
12:24 AM 38.8°F3.8°C 33.5°F0.8°C 81% 4.4 mph NW7.1 kmh NW 16.0 mph25.7 kmh 30.18 in1022.0 mb 0.00 in0.0 mm 0.00 in0.0 mm 0.00 in0.0 mm
12:29 AM 38.7°F3.7°C 33.4°F0.8°C 81% 4.6 mph NW7.4 kmh NW 15.0 mph24.1 kmh 30.18 in1022.0 mb 0.00 in0.0 mm 0.00 in0.0 mm 0.00 in0.0 mm
12:34 AM 38.6°F3.7°C 33.3°F0.7°C 81% 3.6 mph NW5.8 kmh NW 15.0 mph24.1 kmh 30.19 in1022.4 mb 0.00 in0.0 mm 0.00 in0.0 mm 0.00 in0.0 mm
12:39 AM 38.5°F3.6°C 33.2°F0.7°C 81% 4.4 mph NW7.1 kmh NW 15.0 mph24.1 kmh 30.19 in1022.4 mb 0.00 in0.0 mm 0.00 in0.0 mm 0.00 in0.0 mm
12:44 AM 38.4°F3.6°C 32.8°F0.4°C 80% 6.7 mph NW10.8 kmh NW 15.0 mph24.1 kmh 30.19 in1022.4 mb 0.00 in0.0 mm 0.00 in0.0 mm 0.00 in0.0 mm
12:49 AM 38.3°F3.5°C 32.7°F0.4°C 80% 5.0 mph NW8.0 kmh NW 15.0 mph24.1 kmh 30.19 in1022.4 mb 0.00 in0.0 mm 0.00 in0.0 mm 0.00 in0.0 mm
12:54 AM 38.2°F3.4°C 32.9°F0.5°C 81% 2.9 mph NW4.7 kmh NW 15.0 mph24.1 kmh 30.19 in1022.4 mb 0.00 in0.0 mm 0.00 in0.0 mm 0.00 in0.0 mm
12:59 AM 38.1°F3.4°C 32.8°F0.4°C 81% 4.2 mph NW6.8 kmh NW 15.0 mph24.1 kmh 30.19 in1022.4 mb 0.00 in0.0 mm 0.00 in0.0 mm 0.00 in0.0 mm
01:04 AM 38.0°F3.3°C 32.7°F0.4°C 81% 2.2 mph N3.5 kmh N 13.0 mph20.9 kmh 30.19 in1022.4 mb 0.00 in0.0 mm 0.00 in0.0 mm 0.00 in0.0 mm
01:09 AM 37.9°F3.3°C 32.6°F0.3°C 81% 1.3 mph NW2.1 kmh NW 11.0 mph17.7 kmh 30.20 in1022.7 mb 0.00 in0.0 mm 0.00 in0.0 mm 0.00 in0.0 mm
01:14 AM 37.8°F3.2°C 32.8°F0.4°C 82% 2.0 mph WNW3.2 kmh WNW 10.0 mph16.1 kmh 30.20 in1022.7 mb 0.00 in0.0 mm 0.00 in0.0 mm 0.00 in0.0 mm
01:19 AM 37.7°F3.2°C 32.7°F0.4°C 82% 2.6 mph WNW4.2 kmh WNW 8.0 mph12.9 kmh 30.20 in1022.7 mb 0.00 in0.0 mm 0.00 in0.0 mm 0.00 in0.0 mm
01:24 AM 37.6°F3.1°C 32.6°F0.3°C 82% 1.9 mph NW3.1 kmh NW 10.0 mph16.1 kmh 30.20 in1022.7 mb 0.00 in0.0 mm 0.00 in0.0 mm 0.00 in0.0 mm
01:29 AM 37.5°F3.1°C 32.5°F0.3°C 82% 1.8 mph NNW2.9 kmh NNW 10.0 mph16.1 kmh 30.20 in1022.7 mb 0.00 in0.0 mm 0.00 in0.0 mm 0.00 in0.0 mm
01:34 AM 37.5°F3.1°C 32.5°F0.3°C 82% 3.6 mph NW5.8 kmh NW 10.0 mph16.1 kmh 30.20 in1022.7 mb 0.00 in0.0 mm 0.00 in0.0 mm 0.00 in0.0 mm
01:39 AM 37.5°F3.1°C 32.5°F0.3°C 82% 2.9 mph NW4.7 kmh NW 8.0 mph12.9 kmh 30.20 in1022.7 mb 0.00 in0.0 mm 0.00 in0.0 mm 0.00 in0.0 mm
01:44 AM 37.4°F3.0°C 32.7°F0.4°C 83% 3.7 mph NNW6.0 kmh NNW 9.0 mph14.5 kmh 30.20 in1022.7 mb 0.00 in0.0 mm 0.00 in0.0 mm 0.00 in0.0 mm
01:49 AM 37.4°F3.0°C 32.7°F0.4°C 83% 3.4 mph NW5.5 kmh NW 9.0 mph14.5 kmh 30.20 in1022.7 mb 0.00 in0.0 mm 0.00 in0.0 mm 0.00 in0.0 mm
01:54 AM 37.3°F2.9°C 32.6°F0.3°C 83% 2.6 mph NW4.2 kmh NW 9.0 mph14.5 kmh 30.20 in1022.7 mb 0.00 in0.0 mm 0.00 in0.0 mm 0.00 in0.0 mm
01:59 AM 37.3°F2.9°C 32.6°F0.3°C 83% 4.3 mph NW6.9 kmh NW 8.0 mph12.9 kmh 30.20 in1022.7 mb 0.00 in0.0 mm 0.00 in0.0 mm 0.00 in0.0 mm
02:04 AM 37.3°F2.9°C 32.6°F0.3°C 83% 4.3 mph NW6.9 kmh NW 10.0 mph16.1 kmh 30.19 in1022.4 mb 0.00 in0.0 mm 0.00 in0.0 mm 0.00 in0.0 mm
02:09 AM 37.2°F2.9°C 32.5°F0.3°C 83% 3.4 mph NW5.5 kmh NW 10.0 mph16.1 kmh 30.19 in1022.4 mb 0.00 in0.0 mm 0.00 in0.0 mm 0.00 in0.0 mm
02:14 AM 37.2°F2.9°C 32.5°F0.3°C 83% 3.5 mph NNW5.6 kmh NNW 10.0 mph16.1 kmh 30.19 in1022.4 mb 0.00 in0.0 mm 0.00 in0.0 mm 0.00 in0.0 mm
02:19 AM 37.2°F2.9°C 32.5°F0.3°C 83% 4.5 mph NW7.2 kmh NW 10.0 mph16.1 kmh 30.19 in1022.4 mb 0.00 in0.0 mm 0.00 in0.0 mm 0.00 in0.0 mm
02:23 AM 37.1°F2.8°C 32.4°F0.2°C 83% 5.3 mph NW8.5 kmh NW 14.0 mph22.5 kmh 30.19 in1022.4 mb 0.00 in0.0 mm 0.00 in0.0 mm 0.00 in0.0 mm
02:28 AM 37.1°F2.8°C 32.4°F0.2°C 83% 3.9 mph NW6.3 kmh NW 14.0 mph22.5 kmh 30.19 in1022.4 mb 0.00 in0.0 mm 0.00 in0.0 mm 0.00 in0.0 mm
02:33 AM 37.0°F2.8°C 32.3°F0.2°C 83% 2.7 mph NW4.3 kmh NW 14.0 mph22.5 kmh 30.19 in1022.4 mb 0.00 in0.0 mm 0.00 in0.0 mm 0.00 in0.0 mm
02:38 AM 36.9°F2.7°C 32.2°F0.1°C 83% 2.7 mph NW4.3 kmh NW 14.0 mph22.5 kmh 30.19 in1022.4 mb 0.00 in0.0 mm 0.00 in0.0 mm 0.00 in0.0 mm
02:43 AM 36.9°F2.7°C 32.2°F0.1°C 83% 5.5 mph NW8.9 kmh NW 13.0 mph20.9 kmh 30.19 in1022.4 mb 0.00 in0.0 mm 0.00 in0.0 mm 0.00 in0.0 mm
02:48 AM 36.8°F2.7°C 32.1°F0.1°C 83% 5.1 mph NW8.2 kmh NW 13.0 mph20.9 kmh 30.20 in1022.7 mb 0.00 in0.0 mm 0.00 in0.0 mm 0.00 in0.0 mm
02:53 AM 36.8°F2.7°C 32.1°F0.1°C 83% 4.9 mph NW7.9 kmh NW 11.0 mph17.7 kmh 30.19 in1022.4 mb 0.00 in0.0 mm 0.00 in0.0 mm 0.00 in0.0 mm
02:58 AM 36.7°F2.6°C 32.0°F0.0°C 83% 3.3 mph NW5.3 kmh NW 12.0 mph19.3 kmh 30.20 in1022.7 mb 0.00 in0.0 mm 0.00 in0.0 mm 0.00 in0.0 mm
03:03 AM 36.7°F2.6°C 32.3°F0.2°C 84% 2.4 mph NW3.9 kmh NW 12.0 mph19.3 kmh 30.20 in1022.7 mb 0.00 in0.0 mm 0.00 in0.0 mm 0.00 in0.0 mm
03:08 AM 36.5°F2.5°C 32.1°F0.1°C 84% 3.0 mph NNW4.8 kmh NNW 12.0 mph19.3 kmh 30.20 in1022.7 mb 0.00 in0.0 mm 0.00 in0.0 mm 0.00 in0.0 mm
03:13 AM 36.5°F2.5°C 32.1°F0.1°C 84% 2.3 mph NW3.7 kmh NW 12.0 mph19.3 kmh 30.20 in1022.7 mb 0.00 in0.0 mm 0.00 in0.0 mm 0.00 in0.0 mm
03:18 AM 36.4°F2.4°C 32.3°F0.2°C 85% 3.2 mph NW5.1 kmh NW 10.0 mph16.1 kmh 30.20 in1022.7 mb 0.00 in0.0 mm 0.00 in0.0 mm 0.00 in0.0 mm
03:23 AM 36.3°F2.4°C 32.2°F0.1°C 85% 3.1 mph NW5.0 kmh NW 10.0 mph16.1 kmh 30.19 in1022.4 mb 0.00 in0.0 mm 0.00 in0.0 mm 0.00 in0.0 mm
03:28 AM 36.2°F2.3°C 32.1°F0.1°C 85% 4.1 mph NW6.6 kmh NW 10.0 mph16.1 kmh 30.19 in1022.4 mb 0.00 in0.0 mm 0.00 in0.0 mm 0.00 in0.0 mm
03:33 AM 36.1°F2.3°C 32.0°F0.0°C 85% 4.1 mph NW6.6 kmh NW 10.0 mph16.1 kmh 30.19 in1022.4 mb 0.00 in0.0 mm 0.00 in0.0 mm 0.00 in0.0 mm
03:38 AM 36.1°F2.3°C 32.0°F0.0°C 85% 3.2 mph NW5.1 kmh NW 10.0 mph16.1 kmh 30.19 in1022.4 mb 0.00 in0.0 mm 0.00 in0.0 mm 0.00 in0.0 mm
03:43 AM 36.1°F2.3°C 32.0°F0.0°C 85% 3.4 mph NNW5.5 kmh NNW 10.0 mph16.1 kmh 30.20 in1022.7 mb 0.00 in0.0 mm 0.00 in0.0 mm 0.00 in0.0 mm
03:48 AM 36.1°F2.3°C 32.0°F0.0°C 85% 5.0 mph NW8.0 kmh NW 9.0 mph14.5 kmh 30.20 in1022.7 mb 0.00 in0.0 mm 0.00 in0.0 mm 0.00 in0.0 mm
03:53 AM 36.1°F2.3°C 32.0°F0.0°C 85% 3.1 mph NW5.0 kmh NW 9.0 mph14.5 kmh 30.20 in1022.7 mb 0.00 in0.0 mm 0.00 in0.0 mm 0.00 in0.0 mm
03:58 AM 36.1°F2.3°C 32.0°F0.0°C 85% 4.5 mph NW7.2 kmh NW 9.0 mph14.5 kmh 30.20 in1022.7 mb 0.00 in0.0 mm 0.00 in0.0 mm 0.00 in0.0 mm
04:03 AM 36.0°F2.2°C 31.9°F-0.1°C 85% 3.0 mph NW4.8 kmh NW 9.0 mph14.5 kmh 30.20 in1022.7 mb 0.00 in0.0 mm 0.00 in0.0 mm 0.00 in0.0 mm
04:08 AM 35.9°F2.2°C 31.8°F-0.1°C 85% 3.1 mph NW5.0 kmh NW 9.0 mph14.5 kmh 30.20 in1022.7 mb 0.00 in0.0 mm 0.00 in0.0 mm 0.00 in0.0 mm
04:13 AM 35.9°F2.2°C 32.1°F0.1°C 86% 3.5 mph NW5.6 kmh NW 9.0 mph14.5 kmh 30.20 in1022.7 mb 0.00 in0.0 mm 0.00 in0.0 mm 0.00 in0.0 mm
04:18 AM 35.9°F2.2°C 32.1°F0.1°C 86% 2.9 mph NW4.7 kmh NW 8.0 mph12.9 kmh 30.20 in1022.7 mb 0.00 in0.0 mm 0.00 in0.0 mm 0.00 in0.0 mm
04:23 AM 35.9°F2.2°C 32.1°F0.1°C 86% 3.1 mph NW5.0 kmh NW 8.0 mph12.9 kmh 30.20 in1022.7 mb 0.00 in0.0 mm 0.00 in0.0 mm 0.00 in0.0 mm
04:28 AM 35.9°F2.2°C 32.1°F0.1°C 86% 4.4 mph NW7.1 kmh NW 8.0 mph12.9 kmh 30.20 in1022.7 mb 0.00 in0.0 mm 0.00 in0.0 mm 0.00 in0.0 mm
04:33 AM 35.9°F2.2°C 32.1°F0.1°C 86% 3.2 mph NNW5.1 kmh NNW 8.0 mph12.9 kmh 30.21 in1023.0 mb 0.00 in0.0 mm 0.00 in0.0 mm 0.00 in0.0 mm
04:38 AM 35.9°F2.2°C 32.1°F0.1°C 86% 4.0 mph NW6.4 kmh NW 9.0 mph14.5 kmh 30.21 in1023.0 mb 0.00 in0.0 mm 0.00 in0.0 mm 0.00 in0.0 mm
04:43 AM 35.9°F2.2°C 32.1°F0.1°C 86% 1.9 mph NW3.1 kmh NW 9.0 mph14.5 kmh 30.21 in1023.0 mb 0.00 in0.0 mm 0.00 in0.0 mm 0.00 in0.0 mm
04:48 AM 35.8°F2.1°C 32.0°F0.0°C 86% 2.9 mph NW4.7 kmh NW 10.0 mph16.1 kmh 30.21 in1023.0 mb 0.00 in0.0 mm 0.00 in0.0 mm 0.00 in0.0 mm
04:53 AM 35.8°F2.1°C 32.0°F0.0°C 86% 3.1 mph NNW5.0 kmh NNW 10.0 mph16.1 kmh 30.21 in1023.0 mb 0.00 in0.0 mm 0.00 in0.0 mm 0.00 in0.0 mm
04:58 AM 35.9°F2.2°C 32.1°F0.1°C 86% 2.5 mph NNW4.0 kmh NNW 12.0 mph19.3 kmh 30.21 in1023.0 mb 0.00 in0.0 mm 0.00 in0.0 mm 0.00 in0.0 mm
05:03 AM 35.8°F2.1°C 32.0°F0.0°C 86% 2.6 mph NW4.2 kmh NW 12.0 mph19.3 kmh 30.21 in1023.0 mb 0.00 in0.0 mm 0.00 in0.0 mm 0.00 in0.0 mm
05:08 AM 35.8°F2.1°C 32.0°F0.0°C 86% 4.8 mph NW7.7 kmh NW 12.0 mph19.3 kmh 30.21 in1023.0 mb 0.00 in0.0 mm 0.00 in0.0 mm 0.00 in0.0 mm
05:13 AM 35.9°F2.2°C 32.1°F0.1°C 86% 5.0 mph NW8.0 kmh NW 11.0 mph17.7 kmh 30.21 in1023.0 mb 0.00 in0.0 mm 0.00 in0.0 mm 0.00 in0.0 mm
05:18 AM 35.9°F2.2°C 32.1°F0.1°C 86% 5.1 mph NW8.2 kmh NW 11.0 mph17.7 kmh 30.21 in1023.0 mb 0.00 in0.0 mm 0.00 in0.0 mm 0.00 in0.0 mm
05:23 AM 35.9°F2.2°C 32.1°F0.1°C 86% 4.1 mph NW6.6 kmh NW 11.0 mph17.7 kmh 30.21 in1023.0 mb 0.00 in0.0 mm 0.00 in0.0 mm 0.00 in0.0 mm
05:28 AM 35.9°F2.2°C 32.4°F0.2°C 87% 3.1 mph NW5.0 kmh NW 13.0 mph20.9 kmh 30.21 in1023.0 mb 0.00 in0.0 mm 0.00 in0.0 mm 0.00 in0.0 mm
05:33 AM 35.8°F2.1°C 32.3°F0.2°C 87% 4.0 mph N6.4 kmh N 13.0 mph20.9 kmh 30.22 in1023.4 mb 0.00 in0.0 mm 0.00 in0.0 mm 0.00 in0.0 mm
05:38 AM 35.7°F2.1°C 32.2°F0.1°C 87% 3.1 mph NW5.0 kmh NW 13.0 mph20.9 kmh 30.21 in1023.0 mb 0.00 in0.0 mm 0.00 in0.0 mm 0.00 in0.0 mm
05:43 AM 35.7°F2.1°C 32.2°F0.1°C 87% 4.1 mph NNW6.6 kmh NNW 13.0 mph20.9 kmh 30.22 in1023.4 mb 0.00 in0.0 mm 0.00 in0.0 mm 0.00 in0.0 mm
05:48 AM 35.7°F2.1°C 32.2°F0.1°C 87% 3.4 mph NW5.5 kmh NW 12.0 mph19.3 kmh 30.22 in1023.4 mb 0.00 in0.0 mm 0.00 in0.0 mm 0.00 in0.0 mm
05:53 AM 35.7°F2.1°C 32.2°F0.1°C 87% 3.7 mph NW6.0 kmh NW 12.0 mph19.3 kmh 30.22 in1023.4 mb 0.00 in0.0 mm 0.00 in0.0 mm 0.00 in0.0 mm
05:58 AM 35.6°F2.0°C 32.4°F0.2°C 88% 3.7 mph NNW6.0 kmh NNW 12.0 mph19.3 kmh 30.22 in1023.4 mb 0.00 in0.0 mm 0.00 in0.0 mm 0.00 in0.0 mm
06:03 AM 35.6°F2.0°C 32.1°F0.1°C 87% 5.8 mph NW9.3 kmh NW 15.0 mph24.1 kmh 30.23 in1023.7 mb 0.00 in0.0 mm 0.00 in0.0 mm 0.00 in0.0 mm
06:08 AM 35.6°F2.0°C 32.1°F0.1°C 87% 2.3 mph NW3.7 kmh NW 15.0 mph24.1 kmh 30.23 in1023.7 mb 0.00 in0.0 mm 0.00 in0.0 mm 0.00 in0.0 mm
06:13 AM 35.6°F2.0°C 32.4°F0.2°C 88% 3.3 mph NW5.3 kmh NW 15.0 mph24.1 kmh 30.23 in1023.7 mb 0.00 in0.0 mm 0.00 in0.0 mm 0.00 in0.0 mm
06:18 AM 35.5°F1.9°C 32.3°F0.2°C 88% 3.0 mph NNW4.8 kmh NNW 15.0 mph24.1 kmh 30.23 in1023.7 mb 0.00 in0.0 mm 0.00 in0.0 mm 0.00 in0.0 mm
06:23 AM 35.4°F1.9°C 32.2°F0.1°C 88% 2.8 mph N4.5 kmh N 11.0 mph17.7 kmh 30.23 in1023.7 mb 0.00 in0.0 mm 0.00 in0.0 mm 0.00 in0.0 mm
06:28 AM 35.3°F1.8°C 32.1°F0.1°C 88% 3.0 mph NNW4.8 kmh NNW 11.0 mph17.7 kmh 30.24 in1024.0 mb 0.00 in0.0 mm 0.00 in0.0 mm 0.00 in0.0 mm
06:33 AM 35.3°F1.8°C 32.1°F0.1°C 88% 2.2 mph NNW3.5 kmh NNW 9.0 mph14.5 kmh 30.24 in1024.0 mb 0.00 in0.0 mm 0.00 in0.0 mm 0.00 in0.0 mm
06:38 AM 35.2°F1.8°C 32.2°F0.1°C 89% 2.2 mph NW3.5 kmh NW 9.0 mph14.5 kmh 30.24 in1024.0 mb 0.00 in0.0 mm 0.00 in0.0 mm 0.00 in0.0 mm
06:43 AM 35.2°F1.8°C 32.3°F0.2°C 89% 1.4 mph NNW2.3 kmh NNW 9.0 mph14.5 kmh 30.25 in1024.4 mb 0.00 in0.0 mm 0.00 in0.0 mm 0.00 in0.0 mm
06:48 AM 35.1°F1.7°C 32.2°F0.1°C 89% 2.0 mph NNE3.2 kmh NNE 9.0 mph14.5 kmh 30.25 in1024.4 mb 0.00 in0.0 mm 0.00 in0.0 mm 0.00 in0.0 mm
06:53 AM 35.0°F1.7°C 32.0°F0.0°C 89% 1.1 mph N1.8 kmh N 6.0 mph9.7 kmh 30.25 in1024.4 mb 0.00 in0.0 mm 0.00 in0.0 mm 0.00 in0.0 mm
06:58 AM 34.9°F1.6°C 31.9°F-0.1°C 89% 1.3 mph NNE2.1 kmh NNE 6.0 mph9.7 kmh 30.25 in1024.4 mb 0.00 in0.0 mm 0.00 in0.0 mm 0.00 in0.0 mm
07:03 AM 34.9°F1.6°C 31.9°F-0.1°C 89% 1.1 mph NW1.8 kmh NW 4.0 mph6.4 kmh 30.26 in1024.7 mb 0.00 in0.0 mm 0.00 in0.0 mm 0.00 in0.0 mm
07:08 AM 34.8°F1.6°C 32.2°F0.1°C 90% 1.7 mph NE2.7 kmh NE 4.0 mph6.4 kmh 30.26 in1024.7 mb 0.00 in0.0 mm 0.00 in0.0 mm 0.00 in0.0 mm
07:13 AM 35.0°F1.7°C 32.3°F0.2°C 90% 1.3 mph N2.1 kmh N 4.0 mph6.4 kmh 30.26 in1024.7 mb 0.00 in0.0 mm 0.00 in0.0 mm 0.00 in0.0 mm
07:18 AM 35.2°F1.8°C 32.5°F0.3°C 90% 1.0 mph NE1.6 kmh NE 3.0 mph4.8 kmh 30.26 in1024.7 mb 0.00 in0.0 mm 0.00 in0.0 mm 0.00 in0.0 mm
07:22 AM 35.4°F1.9°C 32.4°F0.2°C 89% 1.3 mph N2.1 kmh N 4.0 mph6.4 kmh 30.26 in1024.7 mb 0.00 in0.0 mm 0.00 in0.0 mm 0.00 in0.0 mm
07:27 AM 35.6°F2.0°C 32.6°F0.3°C 89% 1.0 mph NW1.6 kmh NW 4.0 mph6.4 kmh 30.27 in1025.1 mb 0.00 in0.0 mm 0.00 in0.0 mm 0.00 in0.0 mm
07:32 AM 35.8°F2.1°C 32.6°F0.3°C 88% 1.5 mph NNE2.4 kmh NNE 4.0 mph6.4 kmh 30.27 in1025.1 mb 0.00 in0.0 mm 0.00 in0.0 mm 0.00 in0.0 mm
07:37 AM 35.9°F2.2°C 32.7°F0.4°C 88% 1.9 mph NW3.1 kmh NW 4.0 mph6.4 kmh 30.27 in1025.1 mb 0.00 in0.0 mm 0.00 in0.0 mm 0.00 in0.0 mm
07:42 AM 36.0°F2.2°C 32.5°F0.3°C 87% 1.1 mph 1.8 kmh 5.0 mph8.0 kmh 30.27 in1025.1 mb 0.00 in0.0 mm 0.00 in0.0 mm 0.00 in0.0 mm
07:47 AM 36.1°F2.3°C 32.6°F0.3°C 87% 2.9 mph NNW4.7 kmh NNW 7.0 mph11.3 kmh 30.28 in1025.4 mb 0.00 in0.0 mm 0.00 in0.0 mm 0.00 in0.0 mm
07:52 AM 36.3°F2.4°C 32.5°F0.3°C 86% 2.0 mph N3.2 kmh N 7.0 mph11.3 kmh 30.27 in1025.1 mb 0.00 in0.0 mm 0.00 in0.0 mm 0.00 in0.0 mm
07:57 AM 36.8°F2.7°C 33.3°F0.7°C 87% 2.4 mph N3.9 kmh N 7.0 mph11.3 kmh 30.28 in1025.4 mb 0.00 in0.0 mm 0.00 in0.0 mm 0.00 in0.0 mm
08:02 AM 37.0°F2.8°C 32.9°F0.5°C 85% Calm Calm 7.0 mph11.3 kmh 30.28 in1025.4 mb 0.00 in0.0 mm 0.00 in0.0 mm 0.00 in0.0 mm
08:07 AM 37.4°F3.0°C 33.3°F0.7°C 85% 2.0 mph 3.2 kmh 4.0 mph6.4 kmh 30.28 in1025.4 mb 0.00 in0.0 mm 0.00 in0.0 mm 0.00 in0.0 mm
08:12 AM 37.7°F3.2°C 33.0°F0.6°C 83% 2.4 mph N3.9 kmh N 7.0 mph11.3 kmh 30.29 in1025.7 mb 0.00 in0.0 mm 0.00 in0.0 mm 0.00 in0.0 mm
08:17 AM 37.8°F3.2°C 33.1°F0.6°C 83% 3.1 mph NNE5.0 kmh NNE 8.0 mph12.9 kmh 30.29 in1025.7 mb 0.00 in0.0 mm 0.00 in0.0 mm 0.00 in0.0 mm
08:22 AM 37.9°F3.3°C 32.9°F0.5°C 82% 2.9 mph NE4.7 kmh NE 9.0 mph14.5 kmh 30.29 in1025.7 mb 0.00 in0.0 mm 0.00 in0.0 mm 0.00 in0.0 mm
08:27 AM 38.2°F3.4°C 33.2°F0.7°C 82% 1.6 mph N2.6 kmh N 9.0 mph14.5 kmh 30.29 in1025.7 mb 0.00 in0.0 mm 0.00 in0.0 mm 0.00 in0.0 mm
08:32 AM 38.5°F3.6°C 33.2°F0.7°C 81% 2.5 mph N4.0 kmh N 9.0 mph14.5 kmh 30.29 in1025.7 mb 0.00 in0.0 mm 0.00 in0.0 mm 0.00 in0.0 mm
08:37 AM 38.5°F3.6°C 32.9°F0.5°C 80% 4.5 mph N7.2 kmh N 9.0 mph14.5 kmh 30.29 in1025.7 mb 0.00 in0.0 mm 0.00 in0.0 mm 0.00 in0.0 mm
08:42 AM 38.5°F3.6°C 32.9°F0.5°C 80% 3.0 mph NNE4.8 kmh NNE 9.0 mph14.5 kmh 30.30 in1026.1 mb 0.00 in0.0 mm 0.00 in0.0 mm 0.00 in0.0 mm
08:47 AM 38.8°F3.8°C 32.9°F0.5°C 79% 2.6 mph N4.2 kmh N 9.0 mph14.5 kmh 30.30 in1026.1 mb 0.00 in0.0 mm 0.00 in0.0 mm 0.00 in0.0 mm
08:52 AM 39.1°F3.9°C 33.5°F0.8°C 80% 2.9 mph NNE4.7 kmh NNE 9.0 mph14.5 kmh 30.30 in1026.1 mb 0.00 in0.0 mm 0.00 in0.0 mm 0.00 in0.0 mm
08:57 AM 39.5°F4.2°C 33.5°F0.8°C 79% 1.8 mph N2.9 kmh N 9.0 mph14.5 kmh 30.30 in1026.1 mb 0.00 in0.0 mm 0.00 in0.0 mm 0.00 in0.0 mm
09:02 AM 39.8°F4.3°C 33.5°F0.8°C 78% 2.7 mph NNW4.3 kmh NNW 7.0 mph11.3 kmh 30.30 in1026.1 mb 0.00 in0.0 mm 0.00 in0.0 mm 0.00 in0.0 mm
09:07 AM 40.0°F4.4°C 34.0°F1.1°C 79% 1.9 mph N3.1 kmh N 7.0 mph11.3 kmh 30.31 in1026.4 mb 0.00 in0.0 mm 0.00 in0.0 mm 0.00 in0.0 mm
09:12 AM 40.4°F4.7°C 33.8°F1.0°C 77% 2.2 mph NNE3.5 kmh NNE 7.0 mph11.3 kmh 30.31 in1026.4 mb 0.00 in0.0 mm 0.00 in0.0 mm 0.00 in0.0 mm
09:17 AM 40.8°F4.9°C 34.1°F1.2°C 77% 2.3 mph N3.7 kmh N 7.0 mph11.3 kmh 30.31 in1026.4 mb 0.00 in0.0 mm 0.00 in0.0 mm 0.00 in0.0 mm
09:22 AM 41.4°F5.2°C 34.8°F1.6°C 77% 2.2 mph NNE3.5 kmh NNE 7.0 mph11.3 kmh 30.31 in1026.4 mb 0.00 in0.0 mm 0.00 in0.0 mm 0.00 in0.0 mm
09:27 AM 41.7°F5.4°C 34.4°F1.3°C 75% 2.0 mph NE3.2 kmh NE 6.0 mph9.7 kmh 30.31 in1026.4 mb 0.00 in0.0 mm 0.00 in0.0 mm 0.00 in0.0 mm
09:32 AM 42.2°F5.7°C 34.9°F1.6°C 75% 1.7 mph NE2.7 kmh NE 6.0 mph9.7 kmh 30.31 in1026.4 mb 0.00 in0.0 mm 0.00 in0.0 mm 0.00 in0.0 mm
09:37 AM 42.3°F5.7°C 34.6°F1.4°C 74% 1.6 mph NNW2.6 kmh NNW 6.0 mph9.7 kmh 30.31 in1026.4 mb 0.00 in0.0 mm 0.00 in0.0 mm 0.00 in0.0 mm
09:42 AM 42.6°F5.9°C 34.9°F1.6°C 74% 2.1 mph N3.4 kmh N 6.0 mph9.7 kmh 30.31 in1026.4 mb 0.00 in0.0 mm 0.00 in0.0 mm 0.00 in0.0 mm
09:47 AM 42.9°F6.1°C 34.9°F1.6°C 73% 3.1 mph N5.0 kmh N 6.0 mph9.7 kmh 30.31 in1026.4 mb 0.00 in0.0 mm 0.00 in0.0 mm 0.00 in0.0 mm
09:52 AM 42.9°F6.1°C 34.9°F1.6°C 73% 3.6 mph NE5.8 kmh NE 8.0 mph12.9 kmh 30.31 in1026.4 mb 0.00 in0.0 mm 0.00 in0.0 mm 0.00 in0.0 mm
09:57 AM 43.3°F6.3°C 35.3°F1.8°C 73% 3.1 mph NE5.0 kmh NE 8.0 mph12.9 kmh 30.31 in1026.4 mb 0.00 in0.0 mm 0.00 in0.0 mm 0.00 in0.0 mm
10:02 AM 43.8°F6.6°C 35.1°F1.7°C 71% 1.5 mph NE2.4 kmh NE 8.0 mph12.9 kmh 30.32 in1026.8 mb 0.00 in0.0 mm 0.00 in0.0 mm 0.00 in0.0 mm
10:07 AM 44.5°F6.9°C 35.8°F2.1°C 71% 2.7 mph NE4.3 kmh NE 8.0 mph12.9 kmh 30.32 in1026.8 mb 0.00 in0.0 mm 0.00 in0.0 mm 0.00 in0.0 mm
10:12 AM 44.4°F6.9°C 35.0°F1.7°C 69% 4.0 mph NE6.4 kmh NE 7.0 mph11.3 kmh 30.32 in1026.8 mb 0.00 in0.0 mm 0.00 in0.0 mm 0.00 in0.0 mm
10:18 AM 44.6°F7.0°C 35.5°F1.9°C 70% 3.2 mph NE5.1 kmh NE 7.0 mph11.3 kmh 30.32 in1026.8 mb 0.00 in0.0 mm 0.00 in0.0 mm 0.00 in0.0 mm
10:23 AM 45.1°F7.3°C 35.6°F2.0°C 69% 1.8 mph NE2.9 kmh NE 7.0 mph11.3 kmh 30.32 in1026.8 mb 0.00 in0.0 mm 0.00 in0.0 mm 0.00 in0.0 mm
10:28 AM 45.6°F7.6°C 35.7°F2.1°C 68% 1.4 mph N2.3 kmh N 7.0 mph11.3 kmh 30.32 in1026.8 mb 0.00 in0.0 mm 0.00 in0.0 mm 0.00 in0.0 mm
10:33 AM 45.7°F7.6°C 35.8°F2.1°C 68% 1.6 mph N2.6 kmh N 6.0 mph9.7 kmh 30.32 in1026.8 mb 0.00 in0.0 mm 0.00 in0.0 mm 0.00 in0.0 mm
10:38 AM 45.6°F7.6°C 35.4°F1.9°C 67% 4.0 mph NW6.4 kmh NW 7.0 mph11.3 kmh 30.32 in1026.8 mb 0.00 in0.0 mm 0.00 in0.0 mm 0.00 in0.0 mm
10:43 AM 46.1°F7.8°C 36.2°F2.3°C 68% 3.0 mph NE4.8 kmh NE 7.0 mph11.3 kmh 30.32 in1026.8 mb 0.00 in0.0 mm 0.00 in0.0 mm 0.00 in0.0 mm
10:48 AM 46.4°F8.0°C 36.1°F2.3°C 67% 3.1 mph NE5.0 kmh NE 7.0 mph11.3 kmh 30.32 in1026.8 mb 0.00 in0.0 mm 0.00 in0.0 mm 0.00 in0.0 mm
10:53 AM 46.7°F8.2°C 35.7°F2.1°C 65% 2.2 mph NE3.5 kmh NE 7.0 mph11.3 kmh 30.31 in1026.4 mb 0.00 in0.0 mm 0.00 in0.0 mm 0.00 in0.0 mm
10:58 AM 47.0°F8.3°C 35.9°F2.2°C 65% 1.9 mph N3.1 kmh N 6.0 mph9.7 kmh 30.31 in1026.4 mb 0.00 in0.0 mm 0.00 in0.0 mm 0.00 in0.0 mm
11:03 AM 47.4°F8.6°C 35.9°F2.2°C 64% 3.8 mph NE6.1 kmh NE 10.0 mph16.1 kmh 30.31 in1026.4 mb 0.00 in0.0 mm 0.00 in0.0 mm 0.00 in0.0 mm
11:08 AM 47.6°F8.7°C 36.4°F2.4°C 65% 1.3 mph ESE2.1 kmh ESE 10.0 mph16.1 kmh 30.31 in1026.4 mb 0.00 in0.0 mm 0.00 in0.0 mm 0.00 in0.0 mm
11:13 AM 48.1°F8.9°C 37.0°F2.8°C 65% 2.3 mph NE3.7 kmh NE 10.0 mph16.1 kmh 30.31 in1026.4 mb 0.00 in0.0 mm 0.00 in0.0 mm 0.00 in0.0 mm
11:18 AM 48.2°F9.0°C 36.3°F2.4°C 63% 1.6 mph NW2.6 kmh NW 10.0 mph16.1 kmh 30.31 in1026.4 mb 0.00 in0.0 mm 0.00 in0.0 mm 0.00 in0.0 mm
11:23 AM 48.2°F9.0°C 35.9°F2.2°C 62% 2.4 mph ENE3.9 kmh ENE 7.0 mph11.3 kmh 30.31 in1026.4 mb 0.00 in0.0 mm 0.00 in0.0 mm 0.00 in0.0 mm
11:28 AM 48.6°F9.2°C 37.4°F3.0°C 65% 1.8 mph ENE2.9 kmh ENE 7.0 mph11.3 kmh 30.31 in1026.4 mb 0.00 in0.0 mm 0.00 in0.0 mm 0.00 in0.0 mm
11:33 AM 48.7°F9.3°C 36.4°F2.4°C 62% 4.3 mph NE6.9 kmh NE 7.0 mph11.3 kmh 30.31 in1026.4 mb 0.00 in0.0 mm 0.00 in0.0 mm 0.00 in0.0 mm
11:38 AM 48.4°F9.1°C 36.1°F2.3°C 62% 2.3 mph NE3.7 kmh NE 7.0 mph11.3 kmh 30.31 in1026.4 mb 0.00 in0.0 mm 0.00 in0.0 mm 0.00 in0.0 mm
11:43 AM 48.7°F9.3°C 36.4°F2.4°C 62% 3.4 mph NNE5.5 kmh NNE 7.0 mph11.3 kmh 30.31 in1026.4 mb 0.00 in0.0 mm 0.00 in0.0 mm 0.00 in0.0 mm
11:48 AM 49.1°F9.5°C 36.7°F2.6°C 62% 1.7 mph N2.7 kmh N 7.0 mph11.3 kmh 30.30 in1026.1 mb 0.00 in0.0 mm 0.00 in0.0 mm 0.00 in0.0 mm
11:53 AM 49.3°F9.6°C 36.9°F2.7°C 62% 2.8 mph NE4.5 kmh NE 7.0 mph11.3 kmh 30.30 in1026.1 mb 0.00 in0.0 mm 0.00 in0.0 mm 0.00 in0.0 mm
11:58 AM 49.9°F9.9°C 37.0°F2.8°C 61% 1.4 mph NNE2.3 kmh NNE 7.0 mph11.3 kmh 30.30 in1026.1 mb 0.00 in0.0 mm 0.00 in0.0 mm 0.00 in0.0 mm
12:03 PM 50.1°F10.1°C 37.3°F2.9°C 61% 2.6 mph NE4.2 kmh NE 7.0 mph11.3 kmh 30.29 in1025.7 mb 0.00 in0.0 mm 0.00 in0.0 mm 0.00 in0.0 mm
12:08 PM 50.1°F10.1°C 36.8°F2.7°C 60% 1.3 mph E2.1 kmh E 6.0 mph9.7 kmh 30.29 in1025.7 mb 0.00 in0.0 mm 0.00 in0.0 mm 0.00 in0.0 mm
12:13 PM 50.3°F10.2°C 36.9°F2.7°C 60% 2.0 mph W3.2 kmh W 5.0 mph8.0 kmh 30.29 in1025.7 mb 0.00 in0.0 mm 0.00 in0.0 mm 0.00 in0.0 mm
12:18 PM 50.7°F10.4°C 37.4°F3.0°C 60% 3.9 mph NE6.3 kmh NE 7.0 mph11.3 kmh 30.29 in1025.7 mb 0.00 in0.0 mm 0.00 in0.0 mm 0.00 in0.0 mm
12:23 PM 50.7°F10.4°C 37.0°F2.8°C 59% 1.0 mph WSW1.6 kmh WSW 7.0 mph11.3 kmh 30.28 in1025.4 mb 0.00 in0.0 mm 0.00 in0.0 mm 0.00 in0.0 mm
12:28 PM 51.2°F10.7°C 37.4°F3.0°C 59% 1.7 mph NW2.7 kmh NW 7.0 mph11.3 kmh 30.28 in1025.4 mb 0.00 in0.0 mm 0.00 in0.0 mm 0.00 in0.0 mm
12:33 PM 51.5°F10.8°C 37.3°F2.9°C 58% 3.2 mph NW5.1 kmh NW 7.0 mph11.3 kmh 30.29 in1025.7 mb 0.00 in0.0 mm 0.00 in0.0 mm 0.00 in0.0 mm
12:38 PM 51.5°F10.8°C 38.2°F3.4°C 60% 1.8 mph WNW2.9 kmh WNW 7.0 mph11.3 kmh 30.28 in1025.4 mb 0.00 in0.0 mm 0.00 in0.0 mm 0.00 in0.0 mm
12:43 PM 51.8°F11.0°C 38.0°F3.3°C 59% 2.9 mph N4.7 kmh N 7.0 mph11.3 kmh 30.28 in1025.4 mb 0.00 in0.0 mm 0.00 in0.0 mm 0.00 in0.0 mm
12:48 PM 52.2°F11.2°C 38.8°F3.8°C 60% 1.6 mph NE2.6 kmh NE 7.0 mph11.3 kmh 30.28 in1025.4 mb 0.00 in0.0 mm 0.00 in0.0 mm 0.00 in0.0 mm
12:53 PM 52.2°F11.2°C 37.9°F3.3°C 58% 2.6 mph WNW4.2 kmh WNW 7.0 mph11.3 kmh 30.27 in1025.1 mb 0.00 in0.0 mm 0.00 in0.0 mm 0.00 in0.0 mm
12:58 PM 52.5°F11.4°C 38.7°F3.7°C 59% 2.5 mph ENE4.0 kmh ENE 7.0 mph11.3 kmh 30.27 in1025.1 mb 0.00 in0.0 mm 0.00 in0.0 mm 0.00 in0.0 mm
01:03 PM 52.8°F11.6°C 38.1°F3.4°C 57% 5.2 mph NE8.4 kmh NE 9.0 mph14.5 kmh 30.27 in1025.1 mb 0.00 in0.0 mm 0.00 in0.0 mm 0.00 in0.0 mm
01:08 PM 53.0°F11.7°C 38.7°F3.7°C 58% 2.6 mph NNE4.2 kmh NNE 10.0 mph16.1 kmh 30.27 in1025.1 mb 0.00 in0.0 mm 0.00 in0.0 mm 0.00 in0.0 mm
01:13 PM 53.0°F11.7°C 37.8°F3.2°C 56% 4.4 mph NE7.1 kmh NE 10.0 mph16.1 kmh 30.27 in1025.1 mb 0.00 in0.0 mm 0.00 in0.0 mm 0.00 in0.0 mm
01:18 PM 52.7°F11.5°C 37.9°F3.3°C 57% 1.5 mph N2.4 kmh N 10.0 mph16.1 kmh 30.26 in1024.7 mb 0.00 in0.0 mm 0.00 in0.0 mm 0.00 in0.0 mm
01:22 PM 53.5°F11.9°C 39.2°F4.0°C 58% 1.8 mph NW2.9 kmh NW 10.0 mph16.1 kmh 30.26 in1024.7 mb 0.00 in0.0 mm 0.00 in0.0 mm 0.00 in0.0 mm
01:27 PM 54.0°F12.2°C 39.2°F4.0°C 57% 1.7 mph NW2.7 kmh NW 8.0 mph12.9 kmh 30.26 in1024.7 mb 0.00 in0.0 mm 0.00 in0.0 mm 0.00 in0.0 mm
01:32 PM 54.3°F12.4°C 39.9°F4.4°C 58% 2.7 mph NE4.3 kmh NE 6.0 mph9.7 kmh 30.26 in1024.7 mb 0.00 in0.0 mm 0.00 in0.0 mm 0.00 in0.0 mm
01:37 PM 54.3°F12.4°C 39.0°F3.9°C 56% 2.1 mph NE3.4 kmh NE 6.0 mph9.7 kmh 30.26 in1024.7 mb 0.00 in0.0 mm 0.00 in0.0 mm 0.00 in0.0 mm
01:42 PM 54.9°F12.7°C 40.0°F4.4°C 57% 2.8 mph NNE4.5 kmh NNE 7.0 mph11.3 kmh 30.25 in1024.4 mb 0.00 in0.0 mm 0.00 in0.0 mm 0.00 in0.0 mm
01:47 PM 54.7°F12.6°C 38.9°F3.8°C 55% 1.7 mph N2.7 kmh N 7.0 mph11.3 kmh 30.25 in1024.4 mb 0.00 in0.0 mm 0.00 in0.0 mm 0.00 in0.0 mm
01:52 PM 54.8°F12.7°C 39.0°F3.9°C 55% 1.0 mph SE1.6 kmh SE 7.0 mph11.3 kmh 30.25 in1024.4 mb 0.00 in0.0 mm 0.00 in0.0 mm 0.00 in0.0 mm
01:57 PM 54.9°F12.7°C 38.6°F3.7°C 54% 1.2 mph NW1.9 kmh NW 7.0 mph11.3 kmh 30.25 in1024.4 mb 0.00 in0.0 mm 0.00 in0.0 mm 0.00 in0.0 mm
02:02 PM 55.3°F12.9°C 39.0°F3.9°C 54% 4.7 mph NE7.6 kmh NE 8.0 mph12.9 kmh 30.25 in1024.4 mb 0.00 in0.0 mm 0.00 in0.0 mm 0.00 in0.0 mm
02:07 PM 55.3°F12.9°C 39.5°F4.2°C 55% 2.5 mph NE4.0 kmh NE 8.0 mph12.9 kmh 30.25 in1024.4 mb 0.00 in0.0 mm 0.00 in0.0 mm 0.00 in0.0 mm
02:12 PM 55.1°F12.8°C 39.8°F4.3°C 56% 2.0 mph NE3.2 kmh NE 8.0 mph12.9 kmh 30.24 in1024.0 mb 0.00 in0.0 mm 0.00 in0.0 mm 0.00 in0.0 mm
02:17 PM 55.5°F13.1°C 39.2°F4.0°C 54% 2.9 mph ENE4.7 kmh ENE 8.0 mph12.9 kmh 30.24 in1024.0 mb 0.00 in0.0 mm 0.00 in0.0 mm 0.00 in0.0 mm
02:22 PM 55.8°F13.2°C 39.5°F4.2°C 54% 1.8 mph NNE2.9 kmh NNE 6.0 mph9.7 kmh 30.24 in1024.0 mb 0.00 in0.0 mm 0.00 in0.0 mm 0.00 in0.0 mm
02:27 PM 55.9°F13.3°C 39.5°F4.2°C 54% 1.4 mph NNE2.3 kmh NNE 6.0 mph9.7 kmh 30.24 in1024.0 mb 0.00 in0.0 mm 0.00 in0.0 mm 0.00 in0.0 mm
02:32 PM 56.1°F13.4°C 39.2°F4.0°C 53% 2.3 mph NE3.7 kmh NE 6.0 mph9.7 kmh 30.24 in1024.0 mb 0.00 in0.0 mm 0.00 in0.0 mm 0.00 in0.0 mm
02:37 PM 56.6°F13.7°C 39.2°F4.0°C 52% 1.4 mph ESE2.3 kmh ESE 5.0 mph8.0 kmh 30.24 in1024.0 mb 0.00 in0.0 mm 0.00 in0.0 mm 0.00 in0.0 mm
02:42 PM 56.6°F13.7°C 39.2°F4.0°C 52% 3.5 mph NE5.6 kmh NE 8.0 mph12.9 kmh 30.23 in1023.7 mb 0.00 in0.0 mm 0.00 in0.0 mm 0.00 in0.0 mm
02:47 PM 56.5°F13.6°C 38.6°F3.7°C 51% 3.0 mph NE4.8 kmh NE 8.0 mph12.9 kmh 30.24 in1024.0 mb 0.00 in0.0 mm 0.00 in0.0 mm 0.00 in0.0 mm
02:52 PM 56.5°F13.6°C 39.1°F3.9°C 52% 1.6 mph NNE2.6 kmh NNE 8.0 mph12.9 kmh 30.23 in1023.7 mb 0.00 in0.0 mm 0.00 in0.0 mm 0.00 in0.0 mm
02:57 PM 56.8°F13.8°C 38.9°F3.8°C 51% 1.5 mph NE2.4 kmh NE 8.0 mph12.9 kmh 30.23 in1023.7 mb 0.00 in0.0 mm 0.00 in0.0 mm 0.00 in0.0 mm
03:02 PM 56.5°F13.6°C 38.6°F3.7°C 51% 2.5 mph NE4.0 kmh NE 8.0 mph12.9 kmh 30.23 in1023.7 mb 0.00 in0.0 mm 0.00 in0.0 mm 0.00 in0.0 mm
03:07 PM 56.6°F13.7°C 39.2°F4.0°C 52% 1.5 mph N2.4 kmh N 8.0 mph12.9 kmh 30.24 in1024.0 mb 0.00 in0.0 mm 0.00 in0.0 mm 0.00 in0.0 mm
03:12 PM 56.8°F13.8°C 39.4°F4.1°C 52% 1.6 mph WNW2.6 kmh WNW 7.0 mph11.3 kmh 30.24 in1024.0 mb 0.00 in0.0 mm 0.00 in0.0 mm 0.00 in0.0 mm
03:17 PM 57.2°F14.0°C 40.3°F4.6°C 53% Calm Calm 5.0 mph8.0 kmh 30.24 in1024.0 mb 0.00 in0.0 mm 0.00 in0.0 mm 0.00 in0.0 mm
03:22 PM 57.2°F14.0°C 38.7°F3.7°C 50% 3.5 mph NE5.6 kmh NE 7.0 mph11.3 kmh 30.24 in1024.0 mb 0.00 in0.0 mm 0.00 in0.0 mm 0.00 in0.0 mm
03:27 PM 57.1°F13.9°C 38.1°F3.4°C 49% 2.5 mph NE4.0 kmh NE 7.0 mph11.3 kmh 30.24 in1024.0 mb 0.00 in0.0 mm 0.00 in0.0 mm 0.00 in0.0 mm
03:32 PM 57.1°F13.9°C 38.6°F3.7°C 50% 1.5 mph NNW2.4 kmh NNW 7.0 mph11.3 kmh 30.24 in1024.0 mb 0.00 in0.0 mm 0.00 in0.0 mm 0.00 in0.0 mm
03:37 PM 57.4°F14.1°C 38.9°F3.8°C 50% 1.0 mph NW1.6 kmh NW 7.0 mph11.3 kmh 30.24 in1024.0 mb 0.00 in0.0 mm 0.00 in0.0 mm 0.00 in0.0 mm
03:42 PM 57.3°F14.1°C 39.3°F4.1°C 51% 1.8 mph E2.9 kmh E 7.0 mph11.3 kmh 30.24 in1024.0 mb 0.00 in0.0 mm 0.00 in0.0 mm 0.00 in0.0 mm
03:47 PM 57.2°F14.0°C 40.3°F4.6°C 53% 1.0 mph NE1.6 kmh NE 4.0 mph6.4 kmh 30.24 in1024.0 mb 0.00 in0.0 mm 0.00 in0.0 mm 0.00 in0.0 mm
03:52 PM 57.4°F14.1°C 39.9°F4.4°C 52% Calm Calm 4.0 mph6.4 kmh 30.24 in1024.0 mb 0.00 in0.0 mm 0.00 in0.0 mm 0.00 in0.0 mm
03:57 PM 58.2°F14.6°C 40.7°F4.8°C 52% Calm Calm 4.0 mph6.4 kmh 30.23 in1023.7 mb 0.00 in0.0 mm 0.00 in0.0 mm 0.00 in0.0 mm
04:02 PM 58.0°F14.4°C 40.5°F4.7°C 52% 1.5 mph NE2.4 kmh NE 4.0 mph6.4 kmh 30.23 in1023.7 mb 0.00 in0.0 mm 0.00 in0.0 mm 0.00 in0.0 mm
04:07 PM 57.3°F14.1°C 40.4°F4.7°C 53% 1.8 mph NE2.9 kmh NE 5.0 mph8.0 kmh 30.24 in1024.0 mb 0.00 in0.0 mm 0.00 in0.0 mm 0.00 in0.0 mm
04:12 PM 57.5°F14.2°C 41.0°F5.0°C 54% 1.0 mph WNW1.6 kmh WNW 5.0 mph8.0 kmh 30.23 in1023.7 mb 0.00 in0.0 mm 0.00 in0.0 mm 0.00 in0.0 mm
04:17 PM 57.5°F14.2°C 40.5°F4.7°C 53% 1.6 mph NE2.6 kmh NE 5.0 mph8.0 kmh 30.23 in1023.7 mb 0.00 in0.0 mm 0.00 in0.0 mm 0.00 in0.0 mm
04:22 PM 57.4°F14.1°C 40.4°F4.7°C 53% 1.0 mph WNW1.6 kmh WNW 5.0 mph8.0 kmh 30.23 in1023.7 mb 0.00 in0.0 mm 0.00 in0.0 mm 0.00 in0.0 mm
04:27 PM 57.7°F14.3°C 40.7°F4.8°C 53% 1.2 mph NW1.9 kmh NW 3.0 mph4.8 kmh 30.23 in1023.7 mb 0.00 in0.0 mm 0.00 in0.0 mm 0.00 in0.0 mm
04:32 PM 57.9°F14.4°C 39.9°F4.4°C 51% 1.0 mph WNW1.6 kmh WNW 3.0 mph4.8 kmh 30.23 in1023.7 mb 0.00 in0.0 mm 0.00 in0.0 mm 0.00 in0.0 mm
04:37 PM 58.2°F14.6°C 40.7°F4.8°C 52% 1.0 mph SE1.6 kmh SE 3.0 mph4.8 kmh 30.23 in1023.7 mb 0.00 in0.0 mm 0.00 in0.0 mm 0.00 in0.0 mm
04:42 PM 58.2°F14.6°C 40.2°F4.6°C 51% Calm Calm 3.0 mph4.8 kmh 30.23 in1023.7 mb 0.00 in0.0 mm 0.00 in0.0 mm 0.00 in0.0 mm
04:47 PM 57.7°F14.3°C 40.7°F4.8°C 53% 1.3 mph ENE2.1 kmh ENE 2.0 mph3.2 kmh 30.23 in1023.7 mb 0.00 in0.0 mm 0.00 in0.0 mm 0.00 in0.0 mm
04:52 PM 57.4°F14.1°C 40.4°F4.7°C 53% 1.2 mph NNE1.9 kmh NNE 2.0 mph3.2 kmh 30.24 in1024.0 mb 0.00 in0.0 mm 0.00 in0.0 mm 0.00 in0.0 mm
04:57 PM 57.2°F14.0°C 39.7°F4.3°C 52% 1.0 mph NNE1.6 kmh NNE 2.0 mph3.2 kmh 30.23 in1023.7 mb 0.00 in0.0 mm 0.00 in0.0 mm 0.00 in0.0 mm
05:02 PM 56.9°F13.8°C 39.9°F4.4°C 53% 1.7 mph NE2.7 kmh NE 3.0 mph4.8 kmh 30.23 in1023.7 mb 0.00 in0.0 mm 0.00 in0.0 mm 0.00 in0.0 mm
05:07 PM 57.0°F13.9°C 40.0°F4.4°C 53% 1.0 mph N1.6 kmh N 3.0 mph4.8 kmh 30.23 in1023.7 mb 0.00 in0.0 mm 0.00 in0.0 mm 0.00 in0.0 mm
05:12 PM 56.8°F13.8°C 40.4°F4.7°C 54% 1.7 mph ENE2.7 kmh ENE 3.0 mph4.8 kmh 30.23 in1023.7 mb 0.00 in0.0 mm 0.00 in0.0 mm 0.00 in0.0 mm
05:17 PM 56.7°F13.7°C 41.3°F5.2°C 56% Calm Calm 3.0 mph4.8 kmh 30.24 in1024.0 mb 0.00 in0.0 mm 0.00 in0.0 mm 0.00 in0.0 mm
05:22 PM 56.5°F13.6°C 41.1°F5.1°C 56% Calm Calm 3.0 mph4.8 kmh 30.24 in1024.0 mb 0.00 in0.0 mm 0.00 in0.0 mm 0.00 in0.0 mm
05:27 PM 56.1°F13.4°C 41.2°F5.1°C 57% 1.0 mph N1.6 kmh N 3.0 mph4.8 kmh 30.24 in1024.0 mb 0.00 in0.0 mm 0.00 in0.0 mm 0.00 in0.0 mm
05:32 PM 55.6°F13.1°C 40.6°F4.8°C 57% Calm Calm 1.0 mph1.6 kmh 30.23 in1023.7 mb 0.00 in0.0 mm 0.00 in0.0 mm 0.00 in0.0 mm
05:37 PM 55.2°F12.9°C 40.8°F4.9°C 58% Calm Calm 1.0 mph1.6 kmh 30.23 in1023.7 mb 0.00 in0.0 mm 0.00 in0.0 mm 0.00 in0.0 mm
05:42 PM 54.9°F12.7°C 40.5°F4.7°C 58% Calm Calm 1.0 mph1.6 kmh 30.23 in1023.7 mb 0.00 in0.0 mm 0.00 in0.0 mm 0.00 in0.0 mm
05:47 PM 54.6°F12.6°C 40.7°F4.8°C 59% Calm Calm 1.0 mph1.6 kmh 30.24 in1024.0 mb 0.00 in0.0 mm 0.00 in0.0 mm 0.00 in0.0 mm
05:52 PM 54.4°F12.4°C 40.9°F4.9°C 60% Calm Calm 1.0 mph1.6 kmh 30.24 in1024.0 mb 0.00 in0.0 mm 0.00 in0.0 mm 0.00 in0.0 mm
05:57 PM 54.1°F12.3°C 41.1°F5.1°C 61% Calm Calm 1.0 mph1.6 kmh 30.24 in1024.0 mb 0.00 in0.0 mm 0.00 in0.0 mm 0.00 in0.0 mm
06:02 PM 54.0°F12.2°C 40.8°F4.9°C 61% Calm Calm 1.0 mph1.6 kmh 30.24 in1024.0 mb 0.00 in0.0 mm 0.00 in0.0 mm 0.00 in0.0 mm
06:07 PM 53.6°F12.0°C 40.9°F4.9°C 62% Calm Calm -- 30.24 in1024.0 mb 0.00 in0.0 mm 0.00 in0.0 mm 0.00 in0.0 mm
06:12 PM 53.1°F11.7°C 41.0°F5.0°C 63% Calm Calm -- 30.24 in1024.0 mb 0.00 in0.0 mm 0.00 in0.0 mm 0.00 in0.0 mm
06:17 PM 52.7°F11.5°C 41.0°F5.0°C 64% Calm Calm -- 30.24 in1024.0 mb 0.00 in0.0 mm 0.00 in0.0 mm 0.00 in0.0 mm
06:22 PM 52.5°F11.4°C 40.8°F4.9°C 64% Calm Calm -- 30.24 in1024.0 mb 0.00 in0.0 mm 0.00 in0.0 mm 0.00 in0.0 mm
06:27 PM 52.3°F11.3°C 40.5°F4.7°C 64% Calm Calm -- 30.24 in1024.0 mb 0.00 in0.0 mm 0.00 in0.0 mm 0.00 in0.0 mm
06:32 PM 52.1°F11.2°C 40.8°F4.9°C 65% Calm Calm -- 30.24 in1024.0 mb 0.00 in0.0 mm 0.00 in0.0 mm 0.00 in0.0 mm
06:37 PM 52.1°F11.2°C 41.2°F5.1°C 66% 1.0 mph NNE1.6 kmh NNE 1.0 mph1.6 kmh 30.24 in1024.0 mb 0.00 in0.0 mm 0.00 in0.0 mm 0.00 in0.0 mm
06:42 PM 52.3°F11.3°C 40.9°F4.9°C 65% Calm Calm 1.0 mph1.6 kmh 30.24 in1024.0 mb 0.00 in0.0 mm 0.00 in0.0 mm 0.00 in0.0 mm
06:47 PM 52.4°F11.3°C 40.7°F4.8°C 64% Calm Calm 1.0 mph1.6 kmh 30.25 in1024.4 mb 0.00 in0.0 mm 0.00 in0.0 mm 0.00 in0.0 mm
06:52 PM 52.4°F11.3°C 41.1°F5.1°C 65% Calm Calm 1.0 mph1.6 kmh 30.25 in1024.4 mb 0.00 in0.0 mm 0.00 in0.0 mm 0.00 in0.0 mm
06:57 PM 52.3°F11.3°C 40.6°F4.8°C 64% Calm Calm 1.0 mph1.6 kmh 30.25 in1024.4 mb 0.00 in0.0 mm 0.00 in0.0 mm 0.00 in0.0 mm
07:02 PM 52.2°F11.2°C 40.9°F4.9°C 65% 1.0 mph N1.6 kmh N 1.0 mph1.6 kmh 30.25 in1024.4 mb 0.00 in0.0 mm 0.00 in0.0 mm 0.00 in0.0 mm
07:07 PM 52.0°F11.1°C 40.7°F4.8°C 65% Calm Calm 1.0 mph1.6 kmh 30.25 in1024.4 mb 0.00 in0.0 mm 0.00 in0.0 mm 0.00 in0.0 mm
07:12 PM 52.0°F11.1°C 40.7°F4.8°C 65% 1.0 mph N1.6 kmh N 1.0 mph1.6 kmh 30.25 in1024.4 mb 0.00 in0.0 mm 0.00 in0.0 mm 0.00 in0.0 mm
07:17 PM 52.0°F11.1°C 40.7°F4.8°C 65% Calm Calm 1.0 mph1.6 kmh 30.25 in1024.4 mb 0.00 in0.0 mm 0.00 in0.0 mm 0.00 in0.0 mm
07:21 PM 51.8°F11.0°C 40.9°F4.9°C 66% Calm Calm 1.0 mph1.6 kmh 30.25 in1024.4 mb 0.00 in0.0 mm 0.00 in0.0 mm 0.00 in0.0 mm
07:26 PM 51.6°F10.9°C 40.7°F4.8°C 66% 1.0 mph N1.6 kmh N 1.0 mph1.6 kmh 30.25 in1024.4 mb 0.00 in0.0 mm 0.00 in0.0 mm 0.00 in0.0 mm
07:31 PM 51.3°F10.7°C 40.8°F4.9°C 67% Calm Calm 1.0 mph1.6 kmh 30.25 in1024.4 mb 0.00 in0.0 mm 0.00 in0.0 mm 0.00 in0.0 mm
07:36 PM 51.0°F10.6°C 40.9°F4.9°C 68% 1.0 mph N1.6 kmh N 1.0 mph1.6 kmh 30.25 in1024.4 mb 0.00 in0.0 mm 0.00 in0.0 mm 0.00 in0.0 mm
07:41 PM 51.0°F10.6°C 40.5°F4.7°C 67% Calm Calm 1.0 mph1.6 kmh 30.25 in1024.4 mb 0.00 in0.0 mm 0.00 in0.0 mm 0.00 in0.0 mm
07:46 PM 50.8°F10.4°C 40.3°F4.6°C 67% Calm Calm 1.0 mph1.6 kmh 30.25 in1024.4 mb 0.00 in0.0 mm 0.00 in0.0 mm 0.00 in0.0 mm
07:51 PM 50.8°F10.4°C 40.3°F4.6°C 67% 1.0 mph N1.6 kmh N 1.0 mph1.6 kmh 30.25 in1024.4 mb 0.00 in0.0 mm 0.00 in0.0 mm 0.00 in0.0 mm
07:56 PM 50.7°F10.4°C 40.6°F4.8°C 68% 1.0 mph N1.6 kmh N 1.0 mph1.6 kmh 30.25 in1024.4 mb 0.00 in0.0 mm 0.00 in0.0 mm 0.00 in0.0 mm
08:01 PM 50.6°F10.3°C 40.8°F4.9°C 69% Calm Calm 1.0 mph1.6 kmh 30.25 in1024.4 mb 0.00 in0.0 mm 0.00 in0.0 mm 0.00 in0.0 mm
08:06 PM 50.5°F10.3°C 40.4°F4.7°C 68% 1.0 mph N1.6 kmh N 1.0 mph1.6 kmh 30.25 in1024.4 mb 0.00 in0.0 mm 0.00 in0.0 mm 0.00 in0.0 mm
08:11 PM 50.4°F10.2°C 40.3°F4.6°C 68% Calm Calm 1.0 mph1.6 kmh 30.25 in1024.4 mb 0.00 in0.0 mm 0.00 in0.0 mm 0.00 in0.0 mm
08:16 PM 50.3°F10.2°C 40.2°F4.6°C 68% Calm Calm 1.0 mph1.6 kmh 30.25 in1024.4 mb 0.00 in0.0 mm 0.00 in0.0 mm 0.00 in0.0 mm
08:21 PM 50.1°F10.1°C 40.4°F4.7°C 69% Calm Calm 1.0 mph1.6 kmh 30.25 in1024.4 mb 0.00 in0.0 mm 0.00 in0.0 mm 0.00 in0.0 mm
08:26 PM 49.8°F9.9°C 40.4°F4.7°C 70% Calm Calm 1.0 mph1.6 kmh 30.25 in1024.4 mb 0.00 in0.0 mm 0.00 in0.0 mm 0.00 in0.0 mm
08:31 PM 49.7°F9.8°C 40.3°F4.6°C 70% Calm Calm 1.0 mph1.6 kmh 30.25 in1024.4 mb 0.00 in0.0 mm 0.00 in0.0 mm 0.00 in0.0 mm
08:36 PM 49.6°F9.8°C 40.7°F4.8°C 71% Calm Calm 1.0 mph1.6 kmh 30.25 in1024.4 mb 0.00 in0.0 mm 0.00 in0.0 mm 0.00 in0.0 mm
08:41 PM 49.4°F9.7°C 40.5°F4.7°C 71% Calm Calm 1.0 mph1.6 kmh 30.25 in1024.4 mb 0.00 in0.0 mm 0.00 in0.0 mm 0.00 in0.0 mm
08:46 PM 49.2°F9.6°C 40.3°F4.6°C 71% Calm Calm 1.0 mph1.6 kmh 30.26 in1024.7 mb 0.00 in0.0 mm 0.00 in0.0 mm 0.00 in0.0 mm
08:51 PM 49.1°F9.5°C 40.2°F4.6°C 71% Calm Calm 1.0 mph1.6 kmh 30.26 in1024.7 mb 0.00 in0.0 mm 0.00 in0.0 mm 0.00 in0.0 mm
08:56 PM 49.0°F9.4°C 40.1°F4.5°C 71% Calm Calm 1.0 mph1.6 kmh 30.26 in1024.7 mb 0.00 in0.0 mm 0.00 in0.0 mm 0.00 in0.0 mm
09:01 PM 49.0°F9.4°C 39.7°F4.3°C 70% Calm Calm 1.0 mph1.6 kmh 30.26 in1024.7 mb 0.00 in0.0 mm 0.00 in0.0 mm 0.00 in0.0 mm
09:06 PM 49.1°F9.5°C 39.8°F4.3°C 70% Calm Calm 1.0 mph1.6 kmh 30.26 in1024.7 mb 0.00 in0.0 mm 0.00 in0.0 mm 0.00 in0.0 mm
09:11 PM 49.0°F9.4°C 39.7°F4.3°C 70% Calm Calm 1.0 mph1.6 kmh 30.26 in1024.7 mb 0.00 in0.0 mm 0.00 in0.0 mm 0.00 in0.0 mm
09:16 PM 48.9°F9.4°C 40.0°F4.4°C 71% Calm Calm 1.0 mph1.6 kmh 30.26 in1024.7 mb 0.00 in0.0 mm 0.00 in0.0 mm 0.00 in0.0 mm
09:21 PM 48.8°F9.3°C 39.9°F4.4°C 71% Calm Calm 1.0 mph1.6 kmh 30.26 in1024.7 mb 0.00 in0.0 mm 0.00 in0.0 mm 0.00 in0.0 mm
09:26 PM 48.8°F9.3°C 39.9°F4.4°C 71% 1.0 mph WNW1.6 kmh WNW 1.0 mph1.6 kmh 30.26 in1024.7 mb 0.00 in0.0 mm 0.00 in0.0 mm 0.00 in0.0 mm
09:31 PM 48.9°F9.4°C 40.0°F4.4°C 71% Calm Calm 1.0 mph1.6 kmh 30.26 in1024.7 mb 0.00 in0.0 mm 0.00 in0.0 mm 0.00 in0.0 mm
09:36 PM 48.9°F9.4°C 40.0°F4.4°C 71% Calm Calm 1.0 mph1.6 kmh 30.26 in1024.7 mb 0.00 in0.0 mm 0.00 in0.0 mm 0.00 in0.0 mm
09:41 PM 48.7°F9.3°C 40.2°F4.6°C 72% Calm Calm 1.0 mph1.6 kmh 30.26 in1024.7 mb 0.00 in0.0 mm 0.00 in0.0 mm 0.00 in0.0 mm
09:46 PM 48.5°F9.2°C 40.0°F4.4°C 72% Calm Calm 1.0 mph1.6 kmh 30.26 in1024.7 mb 0.00 in0.0 mm 0.00 in0.0 mm 0.00 in0.0 mm
09:51 PM 48.4°F9.1°C 40.1°F4.5°C 73% Calm Calm 1.0 mph1.6 kmh 30.26 in1024.7 mb 0.00 in0.0 mm 0.00 in0.0 mm 0.00 in0.0 mm
09:56 PM 48.2°F9.0°C 40.0°F4.4°C 73% Calm Calm 1.0 mph1.6 kmh 30.26 in1024.7 mb 0.00 in0.0 mm 0.00 in0.0 mm 0.00 in0.0 mm
10:01 PM 47.9°F8.8°C 39.7°F4.3°C 73% Calm Calm 1.0 mph1.6 kmh 30.26 in1024.7 mb 0.00 in0.0 mm 0.00 in0.0 mm 0.00 in0.0 mm
10:06 PM 47.6°F8.7°C 39.8°F4.3°C 74% Calm Calm -- 30.26 in1024.7 mb 0.00 in0.0 mm 0.00 in0.0 mm 0.00 in0.0 mm
10:11 PM 47.3°F8.5°C 39.8°F4.3°C 75% Calm Calm -- 30.26 in1024.7 mb 0.00 in0.0 mm 0.00 in0.0 mm 0.00 in0.0 mm
10:16 PM 47.0°F8.3°C 39.9°F4.4°C 76% Calm Calm -- 30.26 in1024.7 mb 0.00 in0.0 mm 0.00 in0.0 mm 0.00 in0.0 mm
10:21 PM 46.7°F8.2°C 39.9°F4.4°C 77% Calm Calm -- 30.26 in1024.7 mb 0.00 in0.0 mm 0.00 in0.0 mm 0.00 in0.0 mm
10:26 PM 46.4°F8.0°C 40.3°F4.6°C 79% Calm Calm -- 30.26 in1024.7 mb 0.00 in0.0 mm 0.00 in0.0 mm 0.00 in0.0 mm
10:31 PM 46.1°F7.8°C 40.6°F4.8°C 81% Calm Calm -- 30.26 in1024.7 mb 0.00 in0.0 mm 0.00 in0.0 mm 0.00 in0.0 mm
10:36 PM 45.8°F7.7°C 40.3°F4.6°C 81% Calm Calm -- 30.26 in1024.7 mb 0.00 in0.0 mm 0.00 in0.0 mm 0.00 in0.0 mm
10:41 PM 45.5°F7.5°C 40.0°F4.4°C 81% Calm Calm -- 30.26 in1024.7 mb 0.00 in0.0 mm 0.00 in0.0 mm 0.00 in0.0 mm
10:46 PM 45.2°F7.3°C 40.0°F4.4°C 82% Calm Calm -- 30.25 in1024.4 mb 0.00 in0.0 mm 0.00 in0.0 mm 0.00 in0.0 mm
10:51 PM 44.9°F7.2°C 40.0°F4.4°C 83% Calm Calm -- 30.26 in1024.7 mb 0.00 in0.0 mm 0.00 in0.0 mm 0.00 in0.0 mm
10:56 PM 45.1°F7.3°C 40.2°F4.6°C 83% Calm Calm 1.0 mph1.6 kmh 30.25 in1024.4 mb 0.00 in0.0 mm 0.00 in0.0 mm 0.00 in0.0 mm
11:01 PM 45.2°F7.3°C 40.3°F4.6°C 83% 1.0 mph NNW1.6 kmh NNW 1.0 mph1.6 kmh 30.25 in1024.4 mb 0.00 in0.0 mm 0.00 in0.0 mm 0.00 in0.0 mm
11:06 PM 45.2°F7.3°C 40.3°F4.6°C 83% Calm Calm 1.0 mph1.6 kmh 30.25 in1024.4 mb 0.00 in0.0 mm 0.00 in0.0 mm 0.00 in0.0 mm
11:11 PM 45.1°F7.3°C 40.2°F4.6°C 83% 1.0 mph NW1.6 kmh NW 2.0 mph3.2 kmh 30.25 in1024.4 mb 0.00 in0.0 mm 0.00 in0.0 mm 0.00 in0.0 mm
11:16 PM 45.0°F7.2°C 40.1°F4.5°C 83% 1.0 mph NNW1.6 kmh NNW 2.0 mph3.2 kmh 30.25 in1024.4 mb 0.00 in0.0 mm 0.00 in0.0 mm 0.00 in0.0 mm
11:21 PM 45.1°F7.3°C 39.9°F4.4°C 82% 1.0 mph NW1.6 kmh NW 2.0 mph3.2 kmh 30.25 in1024.4 mb 0.00 in0.0 mm 0.00 in0.0 mm 0.00 in0.0 mm
11:26 PM 45.3°F7.4°C 39.8°F4.3°C 81% 1.0 mph NW1.6 kmh NW 2.0 mph3.2 kmh 30.25 in1024.4 mb 0.00 in0.0 mm 0.00 in0.0 mm 0.00 in0.0 mm
11:31 PM 45.4°F7.4°C 39.9°F4.4°C 81% 1.3 mph NW2.1 kmh NW 2.0 mph3.2 kmh 30.25 in1024.4 mb 0.00 in0.0 mm 0.00 in0.0 mm 0.00 in0.0 mm
11:36 PM 45.3°F7.4°C 39.8°F4.3°C 81% Calm Calm 2.0 mph3.2 kmh 30.25 in1024.4 mb 0.00 in0.0 mm 0.00 in0.0 mm 0.00 in0.0 mm
11:41 PM 45.1°F7.3°C 39.6°F4.2°C 81% Calm Calm 2.0 mph3.2 kmh 30.25 in1024.4 mb 0.00 in0.0 mm 0.00 in0.0 mm 0.00 in0.0 mm
11:46 PM 44.9°F7.2°C 39.4°F4.1°C 81% Calm Calm 2.0 mph3.2 kmh 30.24 in1024.0 mb 0.00 in0.0 mm 0.00 in0.0 mm 0.00 in0.0 mm
11:51 PM 44.7°F7.1°C 39.2°F4.0°C 81% 1.0 mph WNW1.6 kmh WNW 1.0 mph1.6 kmh 30.24 in1024.0 mb 0.00 in0.0 mm 0.00 in0.0 mm 0.00 in0.0 mm
11:56 PM 44.5°F6.9°C 39.4°F4.1°C 82% Calm Calm 1.0 mph1.6 kmh 30.24 in1024.0 mb 0.00 in0.0 mm 0.00 in0.0 mm 0.00 in0.0 mm